sensor_id;sensor_type;location;lat;lon;timestamp;temperature;humidity
25933;DHT22;13731;51.166;4.474;2024-01-30T00:02:22;9.70;99.90
25933;DHT22;13731;51.166;4.474;2024-01-30T00:04:48;9.80;99.90
25933;DHT22;13731;51.166;4.474;2024-01-30T00:07:14;9.80;99.90
25933;DHT22;13731;51.166;4.474;2024-01-30T00:09:40;9.80;99.90
25933;DHT22;13731;51.166;4.474;2024-01-30T00:12:06;9.80;99.90
25933;DHT22;13731;51.166;4.474;2024-01-30T00:14:32;9.80;99.90
25933;DHT22;13731;51.166;4.474;2024-01-30T00:16:58;9.80;99.90
25933;DHT22;13731;51.166;4.474;2024-01-30T00:19:24;9.80;99.90
25933;DHT22;13731;51.166;4.474;2024-01-30T00:21:50;9.80;99.90
25933;DHT22;13731;51.166;4.474;2024-01-30T00:24:15;9.80;99.90
25933;DHT22;13731;51.166;4.474;2024-01-30T00:26:41;9.80;99.90
25933;DHT22;13731;51.166;4.474;2024-01-30T00:29:07;9.90;99.90
25933;DHT22;13731;51.166;4.474;2024-01-30T00:31:33;9.90;42.30
25933;DHT22;13731;51.166;4.474;2024-01-30T00:33:58;9.90;99.90
25933;DHT22;13731;51.166;4.474;2024-01-30T00:36:24;9.90;92.70
25933;DHT22;13731;51.166;4.474;2024-01-30T00:38:50;9.90;53.00
25933;DHT22;13731;51.166;4.474;2024-01-30T00:41:18;9.90;99.90
25933;DHT22;13731;51.166;4.474;2024-01-30T00:43:45;9.90;1.00
25933;DHT22;13731;51.166;4.474;2024-01-30T00:46:11;9.90;42.90
25933;DHT22;13731;51.166;4.474;2024-01-30T00:48:37;10.00;66.40
25933;DHT22;13731;51.166;4.474;2024-01-30T00:51:03;10.10;1.00
25933;DHT22;13731;51.166;4.474;2024-01-30T00:53:28;10.10;1.00
25933;DHT22;13731;51.166;4.474;2024-01-30T00:55:54;10.10;1.00
25933;DHT22;13731;51.166;4.474;2024-01-30T00:58:20;10.20;1.00
25933;DHT22;13731;51.166;4.474;2024-01-30T01:00:45;10.20;1.00
25933;DHT22;13731;51.166;4.474;2024-01-30T01:03:12;10.30;1.00
25933;DHT22;13731;51.166;4.474;2024-01-30T01:05:39;10.30;1.00
25933;DHT22;13731;51.166;4.474;2024-01-30T01:08:05;10.30;99.90
25933;DHT22;13731;51.166;4.474;2024-01-30T01:10:31;10.30;99.90
25933;DHT22;13731;51.166;4.474;2024-01-30T01:12:57;10.30;99.90
25933;DHT22;13731;51.166;4.474;2024-01-30T01:15:22;10.20;1.00
25933;DHT22;13731;51.166;4.474;2024-01-30T01:17:48;10.30;99.90
25933;DHT22;13731;51.166;4.474;2024-01-30T01:20:14;10.20;1.00
25933;DHT22;13731;51.166;4.474;2024-01-30T01:22:40;10.20;1.00
25933;DHT22;13731;51.166;4.474;2024-01-30T01:25:06;10.20;1.00
25933;DHT22;13731;51.166;4.474;2024-01-30T01:27:36;10.30;1.00
25933;DHT22;13731;51.166;4.474;2024-01-30T01:30:07;10.30;99.90
25933;DHT22;13731;51.166;4.474;2024-01-30T01:32:34;10.30;99.90
25933;DHT22;13731;51.166;4.474;2024-01-30T01:35:00;10.30;99.90
25933;DHT22;13731;51.166;4.474;2024-01-30T01:37:26;10.40;99.90
25933;DHT22;13731;51.166;4.474;2024-01-30T01:39:52;10.40;99.90
25933;DHT22;13731;51.166;4.474;2024-01-30T01:42:18;10.40;99.90
25933;DHT22;13731;51.166;4.474;2024-01-30T01:44:43;10.30;99.90
25933;DHT22;13731;51.166;4.474;2024-01-30T01:47:09;10.40;1.00
25933;DHT22;13731;51.166;4.474;2024-01-30T01:49:35;10.30;99.90
25933;DHT22;13731;51.166;4.474;2024-01-30T01:52:01;10.30;1.00
25933;DHT22;13731;51.166;4.474;2024-01-30T01:54:26;10.20;1.00
25933;DHT22;13731;51.166;4.474;2024-01-30T01:56:54;10.20;1.00
25933;DHT22;13731;51.166;4.474;2024-01-30T01:59:20;10.20;1.00
25933;DHT22;13731;51.166;4.474;2024-01-30T02:01:46;10.20;1.00
25933;DHT22;13731;51.166;4.474;2024-01-30T02:04:14;10.20;1.00
25933;DHT22;13731;51.166;4.474;2024-01-30T02:06:41;10.20;1.00
25933;DHT22;13731;51.166;4.474;2024-01-30T02:09:06;10.20;1.00
25933;DHT22;13731;51.166;4.474;2024-01-30T02:11:32;10.20;1.00
25933;DHT22;13731;51.166;4.474;2024-01-30T02:14:02;10.20;1.00
25933;DHT22;13731;51.166;4.474;2024-01-30T02:16:27;10.20;1.00
25933;DHT22;13731;51.166;4.474;2024-01-30T02:18:53;10.20;1.00
25933;DHT22;13731;51.166;4.474;2024-01-30T02:21:19;10.10;1.00
25933;DHT22;13731;51.166;4.474;2024-01-30T02:23:46;10.10;99.00
25933;DHT22;13731;51.166;4.474;2024-01-30T02:26:12;10.10;99.90
25933;DHT22;13731;51.166;4.474;2024-01-30T02:28:38;10.10;99.90
25933;DHT22;13731;51.166;4.474;2024-01-30T02:31:03;10.10;99.90
25933;DHT22;13731;51.166;4.474;2024-01-30T02:33:29;10.00;99.90
25933;DHT22;13731;51.166;4.474;2024-01-30T02:35:55;10.00;99.90
25933;DHT22;13731;51.166;4.474;2024-01-30T02:38:21;9.90;99.90
25933;DHT22;13731;51.166;4.474;2024-01-30T02:40:46;10.00;99.90
25933;DHT22;13731;51.166;4.474;2024-01-30T02:43:12;10.00;99.90
25933;DHT22;13731;51.166;4.474;2024-01-30T02:45:38;10.00;99.90
25933;DHT22;13731;51.166;4.474;2024-01-30T02:48:04;10.00;99.90
25933;DHT22;13731;51.166;4.474;2024-01-30T02:50:29;10.10;99.90
25933;DHT22;13731;51.166;4.474;2024-01-30T02:52:55;10.10;99.90
25933;DHT22;13731;51.166;4.474;2024-01-30T02:55:21;10.00;99.90
25933;DHT22;13731;51.166;4.474;2024-01-30T02:57:46;10.20;99.90
25933;DHT22;13731;51.166;4.474;2024-01-30T03:00:12;10.20;99.90
25933;DHT22;13731;51.166;4.474;2024-01-30T03:02:38;10.20;99.90
25933;DHT22;13731;51.166;4.474;2024-01-30T03:05:05;10.30;99.90
25933;DHT22;13731;51.166;4.474;2024-01-30T03:07:31;10.30;99.90
25933;DHT22;13731;51.166;4.474;2024-01-30T03:09:57;10.30;99.90
25933;DHT22;13731;51.166;4.474;2024-01-30T03:12:22;10.40;4.00
25933;DHT22;13731;51.166;4.474;2024-01-30T03:14:48;10.50;1.00
25933;DHT22;13731;51.166;4.474;2024-01-30T03:17:15;10.60;1.00
25933;DHT22;13731;51.166;4.474;2024-01-30T03:19:40;10.70;1.00
25933;DHT22;13731;51.166;4.474;2024-01-30T03:22:06;10.70;1.00
25933;DHT22;13731;51.166;4.474;2024-01-30T03:24:32;10.80;99.90
25933;DHT22;13731;51.166;4.474;2024-01-30T03:26:58;10.90;99.90
25933;DHT22;13731;51.166;4.474;2024-01-30T03:29:23;10.80;99.90
25933;DHT22;13731;51.166;4.474;2024-01-30T03:31:49;10.80;99.90
25933;DHT22;13731;51.166;4.474;2024-01-30T03:34:15;10.70;99.90
25933;DHT22;13731;51.166;4.474;2024-01-30T03:36:40;10.70;1.00
25933;DHT22;13731;51.166;4.474;2024-01-30T03:39:06;10.70;1.00
25933;DHT22;13731;51.166;4.474;2024-01-30T03:41:32;10.70;1.00
25933;DHT22;13731;51.166;4.474;2024-01-30T03:43:57;10.70;1.00
25933;DHT22;13731;51.166;4.474;2024-01-30T03:46:23;10.60;1.00
25933;DHT22;13731;51.166;4.474;2024-01-30T03:48:49;10.60;1.00
25933;DHT22;13731;51.166;4.474;2024-01-30T03:51:15;10.60;1.00
25933;DHT22;13731;51.166;4.474;2024-01-30T03:53:44;10.70;1.00
25933;DHT22;13731;51.166;4.474;2024-01-30T03:56:11;10.70;1.00
25933;DHT22;13731;51.166;4.474;2024-01-30T03:58:39;10.80;1.00
25933;DHT22;13731;51.166;4.474;2024-01-30T04:01:05;10.80;99.90
25933;DHT22;13731;51.166;4.474;2024-01-30T04:03:31;10.80;1.00
25933;DHT22;13731;51.166;4.474;2024-01-30T04:05:56;10.80;1.00
25933;DHT22;13731;51.166;4.474;2024-01-30T04:08:22;10.80;1.00
25933;DHT22;13731;51.166;4.474;2024-01-30T04:10:48;10.80;1.00
25933;DHT22;13731;51.166;4.474;2024-01-30T04:13:14;10.70;1.00
25933;DHT22;13731;51.166;4.474;2024-01-30T04:15:39;10.70;1.00
25933;DHT22;13731;51.166;4.474;2024-01-30T04:18:05;10.70;1.00
25933;DHT22;13731;51.166;4.474;2024-01-30T04:20:31;10.80;1.00
25933;DHT22;13731;51.166;4.474;2024-01-30T04:22:57;10.70;1.00
25933;DHT22;13731;51.166;4.474;2024-01-30T04:25:23;10.70;1.00
25933;DHT22;13731;51.166;4.474;2024-01-30T04:27:48;10.70;1.00
25933;DHT22;13731;51.166;4.474;2024-01-30T04:30:14;10.70;1.00
25933;DHT22;13731;51.166;4.474;2024-01-30T04:32:40;10.80;1.00
25933;DHT22;13731;51.166;4.474;2024-01-30T04:35:06;10.80;1.00
25933;DHT22;13731;51.166;4.474;2024-01-30T04:37:31;10.80;1.00
25933;DHT22;13731;51.166;4.474;2024-01-30T04:39:57;10.80;1.00
25933;DHT22;13731;51.166;4.474;2024-01-30T04:42:23;10.80;1.00
25933;DHT22;13731;51.166;4.474;2024-01-30T04:44:49;10.80;1.00
25933;DHT22;13731;51.166;4.474;2024-01-30T04:47:15;10.70;1.00
25933;DHT22;13731;51.166;4.474;2024-01-30T04:49:40;10.80;1.00
25933;DHT22;13731;51.166;4.474;2024-01-30T04:52:07;10.80;1.00
25933;DHT22;13731;51.166;4.474;2024-01-30T04:54:33;10.80;1.00
25933;DHT22;13731;51.166;4.474;2024-01-30T04:56:58;10.80;1.00
25933;DHT22;13731;51.166;4.474;2024-01-30T04:59:24;10.90;99.90
25933;DHT22;13731;51.166;4.474;2024-01-30T05:01:50;10.90;99.90
25933;DHT22;13731;51.166;4.474;2024-01-30T05:04:15;10.90;99.90
25933;DHT22;13731;51.166;4.474;2024-01-30T05:06:41;10.90;99.90
25933;DHT22;13731;51.166;4.474;2024-01-30T05:09:07;10.90;99.90
25933;DHT22;13731;51.166;4.474;2024-01-30T05:11:38;10.80;99.90
25933;DHT22;13731;51.166;4.474;2024-01-30T05:14:04;10.80;1.00
25933;DHT22;13731;51.166;4.474;2024-01-30T05:16:31;10.90;1.00
25933;DHT22;13731;51.166;4.474;2024-01-30T05:18:57;10.80;99.90
25933;DHT22;13731;51.166;4.474;2024-01-30T05:21:23;10.90;99.90
25933;DHT22;13731;51.166;4.474;2024-01-30T05:23:49;10.90;99.90
25933;DHT22;13731;51.166;4.474;2024-01-30T05:26:14;10.80;99.90
25933;DHT22;13731;51.166;4.474;2024-01-30T05:28:40;10.90;99.90
25933;DHT22;13731;51.166;4.474;2024-01-30T05:31:06;10.90;99.90
25933;DHT22;13731;51.166;4.474;2024-01-30T05:33:32;10.90;99.90
25933;DHT22;13731;51.166;4.474;2024-01-30T05:35:57;11.00;99.90
25933;DHT22;13731;51.166;4.474;2024-01-30T05:38:23;10.90;99.90
25933;DHT22;13731;51.166;4.474;2024-01-30T05:40:49;10.90;99.90
25933;DHT22;13731;51.166;4.474;2024-01-30T05:43:15;10.90;99.90
25933;DHT22;13731;51.166;4.474;2024-01-30T05:45:40;10.90;99.90
25933;DHT22;13731;51.166;4.474;2024-01-30T05:48:06;10.90;99.90
25933;DHT22;13731;51.166;4.474;2024-01-30T05:50:32;10.80;99.90
25933;DHT22;13731;51.166;4.474;2024-01-30T05:52:58;10.80;99.90
25933;DHT22;13731;51.166;4.474;2024-01-30T05:55:23;10.90;99.90
25933;DHT22;13731;51.166;4.474;2024-01-30T05:57:49;10.90;99.90
25933;DHT22;13731;51.166;4.474;2024-01-30T06:00:16;10.90;99.90
25933;DHT22;13731;51.166;4.474;2024-01-30T06:02:42;11.00;99.90
25933;DHT22;13731;51.166;4.474;2024-01-30T06:05:07;11.00;99.90
25933;DHT22;13731;51.166;4.474;2024-01-30T06:07:33;10.90;99.90
25933;DHT22;13731;51.166;4.474;2024-01-30T06:09:59;10.90;99.90
25933;DHT22;13731;51.166;4.474;2024-01-30T06:12:27;10.90;99.90
25933;DHT22;13731;51.166;4.474;2024-01-30T06:14:53;11.00;99.90
25933;DHT22;13731;51.166;4.474;2024-01-30T06:17:24;11.00;99.90
25933;DHT22;13731;51.166;4.474;2024-01-30T06:19:50;11.10;99.90
25933;DHT22;13731;51.166;4.474;2024-01-30T06:22:16;11.00;99.90
25933;DHT22;13731;51.166;4.474;2024-01-30T06:24:42;11.00;99.90
25933;DHT22;13731;51.166;4.474;2024-01-30T06:27:10;11.10;99.90
25933;DHT22;13731;51.166;4.474;2024-01-30T06:29:36;11.10;99.90
25933;DHT22;13731;51.166;4.474;2024-01-30T06:32:02;11.20;99.90
25933;DHT22;13731;51.166;4.474;2024-01-30T06:34:28;11.10;99.90
25933;DHT22;13731;51.166;4.474;2024-01-30T06:36:54;11.20;99.90
25933;DHT22;13731;51.166;4.474;2024-01-30T06:39:19;11.10;99.90
25933;DHT22;13731;51.166;4.474;2024-01-30T06:41:45;11.10;99.90
25933;DHT22;13731;51.166;4.474;2024-01-30T06:44:12;11.10;99.90
25933;DHT22;13731;51.166;4.474;2024-01-30T06:46:38;11.10;99.90
25933;DHT22;13731;51.166;4.474;2024-01-30T06:49:04;11.10;99.90
25933;DHT22;13731;51.166;4.474;2024-01-30T06:51:30;11.30;99.90
25933;DHT22;13731;51.166;4.474;2024-01-30T06:53:56;11.40;1.00
25933;DHT22;13731;51.166;4.474;2024-01-30T06:56:21;11.40;1.00
25933;DHT22;13731;51.166;4.474;2024-01-30T06:58:48;11.40;1.00
25933;DHT22;13731;51.166;4.474;2024-01-30T07:01:14;11.40;1.00
25933;DHT22;13731;51.166;4.474;2024-01-30T07:03:40;11.30;1.00
25933;DHT22;13731;51.166;4.474;2024-01-30T07:06:06;11.30;1.00
25933;DHT22;13731;51.166;4.474;2024-01-30T07:08:31;11.40;1.00
25933;DHT22;13731;51.166;4.474;2024-01-30T07:10:57;11.40;1.00
25933;DHT22;13731;51.166;4.474;2024-01-30T07:13:23;11.50;1.00
25933;DHT22;13731;51.166;4.474;2024-01-30T07:15:48;11.50;1.00
25933;DHT22;13731;51.166;4.474;2024-01-30T07:18:14;11.60;1.00
25933;DHT22;13731;51.166;4.474;2024-01-30T07:20:40;11.60;1.00
25933;DHT22;13731;51.166;4.474;2024-01-30T07:23:12;11.60;1.00
25933;DHT22;13731;51.166;4.474;2024-01-30T07:25:40;11.70;1.00
25933;DHT22;13731;51.166;4.474;2024-01-30T07:28:07;11.60;1.00
25933;DHT22;13731;51.166;4.474;2024-01-30T07:30:33;11.60;1.00
25933;DHT22;13731;51.166;4.474;2024-01-30T07:32:58;11.70;1.00
25933;DHT22;13731;51.166;4.474;2024-01-30T07:35:24;11.70;1.00
25933;DHT22;13731;51.166;4.474;2024-01-30T07:37:49;11.60;1.00
25933;DHT22;13731;51.166;4.474;2024-01-30T07:40:15;11.70;1.00
25933;DHT22;13731;51.166;4.474;2024-01-30T07:42:41;11.70;1.00
25933;DHT22;13731;51.166;4.474;2024-01-30T07:45:07;11.80;1.00
25933;DHT22;13731;51.166;4.474;2024-01-30T07:47:33;11.70;1.00
25933;DHT22;13731;51.166;4.474;2024-01-30T07:49:59;11.70;1.00
25933;DHT22;13731;51.166;4.474;2024-01-30T07:52:25;11.60;1.00
25933;DHT22;13731;51.166;4.474;2024-01-30T07:54:51;11.50;1.00
25933;DHT22;13731;51.166;4.474;2024-01-30T07:57:17;11.50;1.00
25933;DHT22;13731;51.166;4.474;2024-01-30T07:59:43;11.50;1.00
25933;DHT22;13731;51.166;4.474;2024-01-30T08:02:10;11.40;1.00
25933;DHT22;13731;51.166;4.474;2024-01-30T08:04:36;11.50;1.00
25933;DHT22;13731;51.166;4.474;2024-01-30T08:07:01;11.50;1.00
25933;DHT22;13731;51.166;4.474;2024-01-30T08:09:29;11.50;1.00
25933;DHT22;13731;51.166;4.474;2024-01-30T08:11:54;11.50;1.00
25933;DHT22;13731;51.166;4.474;2024-01-30T08:14:20;11.50;1.00
25933;DHT22;13731;51.166;4.474;2024-01-30T08:16:46;11.50;10.40
25933;DHT22;13731;51.166;4.474;2024-01-30T08:19:12;11.60;1.00
25933;DHT22;13731;51.166;4.474;2024-01-30T08:21:38;11.60;1.00
25933;DHT22;13731;51.166;4.474;2024-01-30T08:24:04;11.60;1.00
25933;DHT22;13731;51.166;4.474;2024-01-30T08:26:33;11.60;1.00
25933;DHT22;13731;51.166;4.474;2024-01-30T08:29:00;11.70;1.00
25933;DHT22;13731;51.166;4.474;2024-01-30T08:31:26;11.70;1.00
25933;DHT22;13731;51.166;4.474;2024-01-30T08:33:52;11.80;1.00
25933;DHT22;13731;51.166;4.474;2024-01-30T08:36:18;11.80;1.00
25933;DHT22;13731;51.166;4.474;2024-01-30T08:38:44;11.70;1.00
25933;DHT22;13731;51.166;4.474;2024-01-30T08:41:10;11.70;1.00
25933;DHT22;13731;51.166;4.474;2024-01-30T08:43:36;11.70;2.80
25933;DHT22;13731;51.166;4.474;2024-01-30T08:46:02;11.60;55.70
25933;DHT22;13731;51.166;4.474;2024-01-30T08:48:28;11.70;8.60
25933;DHT22;13731;51.166;4.474;2024-01-30T08:50:53;11.70;27.80
25933;DHT22;13731;51.166;4.474;2024-01-30T08:53:19;11.80;1.00
25933;DHT22;13731;51.166;4.474;2024-01-30T08:55:45;11.90;1.00
25933;DHT22;13731;51.166;4.474;2024-01-30T08:58:11;12.00;1.00
25933;DHT22;13731;51.166;4.474;2024-01-30T09:00:37;12.00;1.00
25933;DHT22;13731;51.166;4.474;2024-01-30T09:03:03;11.90;1.00
25933;DHT22;13731;51.166;4.474;2024-01-30T09:05:28;11.70;1.00
25933;DHT22;13731;51.166;4.474;2024-01-30T09:07:54;11.80;14.00
25933;DHT22;13731;51.166;4.474;2024-01-30T09:10:20;11.80;1.00
25933;DHT22;13731;51.166;4.474;2024-01-30T09:12:46;11.70;18.30
25933;DHT22;13731;51.166;4.474;2024-01-30T09:15:12;11.70;97.80
25933;DHT22;13731;51.166;4.474;2024-01-30T09:17:37;11.70;99.20
25933;DHT22;13731;51.166;4.474;2024-01-30T09:20:03;11.70;99.90
25933;DHT22;13731;51.166;4.474;2024-01-30T09:22:29;11.80;1.00
25933;DHT22;13731;51.166;4.474;2024-01-30T09:24:55;11.90;1.00
25933;DHT22;13731;51.166;4.474;2024-01-30T09:27:20;12.00;1.00
25933;DHT22;13731;51.166;4.474;2024-01-30T09:29:46;11.90;1.00
25933;DHT22;13731;51.166;4.474;2024-01-30T09:32:12;11.90;9.10
25933;DHT22;13731;51.166;4.474;2024-01-30T09:34:38;12.10;1.00
25933;DHT22;13731;51.166;4.474;2024-01-30T09:37:04;12.10;1.00
25933;DHT22;13731;51.166;4.474;2024-01-30T09:39:30;12.00;1.00
25933;DHT22;13731;51.166;4.474;2024-01-30T09:42:38;12.00;1.00
25933;DHT22;13731;51.166;4.474;2024-01-30T09:44:45;11.90;99.90
25933;DHT22;13731;51.166;4.474;2024-01-30T09:47:12;11.90;99.90
25933;DHT22;13731;51.166;4.474;2024-01-30T09:49:38;12.00;99.90
25933;DHT22;13731;51.166;4.474;2024-01-30T09:52:05;12.00;99.90
25933;DHT22;13731;51.166;4.474;2024-01-30T09:54:31;12.10;99.90
25933;DHT22;13731;51.166;4.474;2024-01-30T09:56:57;12.20;53.50
25933;DHT22;13731;51.166;4.474;2024-01-30T09:59:23;12.20;99.90
25933;DHT22;13731;51.166;4.474;2024-01-30T10:01:49;12.10;99.90
25933;DHT22;13731;51.166;4.474;2024-01-30T10:04:15;12.10;99.90
25933;DHT22;13731;51.166;4.474;2024-01-30T10:06:42;12.10;99.90
25933;DHT22;13731;51.166;4.474;2024-01-30T10:09:07;12.10;99.90
25933;DHT22;13731;51.166;4.474;2024-01-30T10:11:35;12.10;99.90
25933;DHT22;13731;51.166;4.474;2024-01-30T10:14:01;12.30;99.90
25933;DHT22;13731;51.166;4.474;2024-01-30T10:16:27;12.30;99.90
25933;DHT22;13731;51.166;4.474;2024-01-30T10:18:53;12.30;99.90
25933;DHT22;13731;51.166;4.474;2024-01-30T10:21:18;12.40;42.40
25933;DHT22;13731;51.166;4.474;2024-01-30T10:23:44;12.30;99.90
25933;DHT22;13731;51.166;4.474;2024-01-30T10:26:10;12.30;65.20
25933;DHT22;13731;51.166;4.474;2024-01-30T10:28:37;12.40;1.00
25933;DHT22;13731;51.166;4.474;2024-01-30T10:31:02;12.20;99.90
25933;DHT22;13731;51.166;4.474;2024-01-30T10:33:32;12.00;99.90
25933;DHT22;13731;51.166;4.474;2024-01-30T10:36:00;12.00;99.90
25933;DHT22;13731;51.166;4.474;2024-01-30T10:38:26;12.00;11.00
25933;DHT22;13731;51.166;4.474;2024-01-30T10:40:54;12.20;1.00
25933;DHT22;13731;51.166;4.474;2024-01-30T10:43:21;12.00;1.00
25933;DHT22;13731;51.166;4.474;2024-01-30T10:45:49;11.90;1.00
25933;DHT22;13731;51.166;4.474;2024-01-30T10:48:16;11.80;1.00
25933;DHT22;13731;51.166;4.474;2024-01-30T10:50:43;11.90;1.00
25933;DHT22;13731;51.166;4.474;2024-01-30T10:53:08;11.80;99.90
25933;DHT22;13731;51.166;4.474;2024-01-30T10:55:35;11.80;1.00
25933;DHT22;13731;51.166;4.474;2024-01-30T10:58:02;11.80;1.00
25933;DHT22;13731;51.166;4.474;2024-01-30T11:00:27;11.80;1.00
25933;DHT22;13731;51.166;4.474;2024-01-30T11:02:54;11.80;1.00
25933;DHT22;13731;51.166;4.474;2024-01-30T11:05:25;11.80;1.00
25933;DHT22;13731;51.166;4.474;2024-01-30T11:07:53;11.70;1.00
25933;DHT22;13731;51.166;4.474;2024-01-30T11:10:19;11.60;1.00
25933;DHT22;13731;51.166;4.474;2024-01-30T11:12:45;11.50;1.00
25933;DHT22;13731;51.166;4.474;2024-01-30T11:15:15;11.50;1.00
25933;DHT22;13731;51.166;4.474;2024-01-30T11:20:19;11.60;99.90
25933;DHT22;13731;51.166;4.474;2024-01-30T11:22:45;12.00;99.90
25933;DHT22;13731;51.166;4.474;2024-01-30T11:25:12;12.60;99.90
25933;DHT22;13731;51.166;4.474;2024-01-30T11:27:38;13.40;99.90
25933;DHT22;13731;51.166;4.474;2024-01-30T11:30:04;14.10;99.90
25933;DHT22;13731;51.166;4.474;2024-01-30T11:32:30;14.70;99.90
25933;DHT22;13731;51.166;4.474;2024-01-30T11:34:56;14.80;99.90
25933;DHT22;13731;51.166;4.474;2024-01-30T11:37:22;14.20;99.90
25933;DHT22;13731;51.166;4.474;2024-01-30T11:39:50;13.50;99.90
25933;DHT22;13731;51.166;4.474;2024-01-30T11:42:16;13.10;99.90
25933;DHT22;13731;51.166;4.474;2024-01-30T11:44:46;13.20;99.90
25933;DHT22;13731;51.166;4.474;2024-01-30T11:47:12;13.20;99.90
25933;DHT22;13731;51.166;4.474;2024-01-30T11:49:37;13.20;99.90
25933;DHT22;13731;51.166;4.474;2024-01-30T11:52:03;13.10;99.90
25933;DHT22;13731;51.166;4.474;2024-01-30T11:54:29;12.70;99.90
25933;DHT22;13731;51.166;4.474;2024-01-30T11:56:57;12.60;99.90
25933;DHT22;13731;51.166;4.474;2024-01-30T11:59:22;12.60;99.90
25933;DHT22;13731;51.166;4.474;2024-01-30T12:01:48;12.60;99.90
25933;DHT22;13731;51.166;4.474;2024-01-30T12:04:14;12.50;99.90
25933;DHT22;13731;51.166;4.474;2024-01-30T12:06:40;12.60;99.90
25933;DHT22;13731;51.166;4.474;2024-01-30T12:09:06;12.40;99.90
25933;DHT22;13731;51.166;4.474;2024-01-30T12:11:45;12.30;99.90
25933;DHT22;13731;51.166;4.474;2024-01-30T12:14:11;12.30;99.90
25933;DHT22;13731;51.166;4.474;2024-01-30T12:16:37;12.30;99.90
25933;DHT22;13731;51.166;4.474;2024-01-30T12:19:03;12.60;99.90
25933;DHT22;13731;51.166;4.474;2024-01-30T12:21:29;12.90;99.90
25933;DHT22;13731;51.166;4.474;2024-01-30T12:23:54;12.60;99.90
25933;DHT22;13731;51.166;4.474;2024-01-30T12:26:20;12.20;99.90
25933;DHT22;13731;51.166;4.474;2024-01-30T12:28:49;12.20;99.90
25933;DHT22;13731;51.166;4.474;2024-01-30T12:31:16;12.20;99.90
25933;DHT22;13731;51.166;4.474;2024-01-30T12:33:42;12.00;99.90
25933;DHT22;13731;51.166;4.474;2024-01-30T12:36:07;12.00;99.90
25933;DHT22;13731;51.166;4.474;2024-01-30T12:38:33;12.00;99.90
25933;DHT22;13731;51.166;4.474;2024-01-30T12:40:59;12.00;99.90
25933;DHT22;13731;51.166;4.474;2024-01-30T12:43:25;12.10;99.90
25933;DHT22;13731;51.166;4.474;2024-01-30T12:45:52;12.10;99.90
25933;DHT22;13731;51.166;4.474;2024-01-30T12:48:18;11.90;99.90
25933;DHT22;13731;51.166;4.474;2024-01-30T12:50:44;12.00;99.90
25933;DHT22;13731;51.166;4.474;2024-01-30T12:53:09;12.00;99.90
25933;DHT22;13731;51.166;4.474;2024-01-30T12:55:35;11.90;99.90
25933;DHT22;13731;51.166;4.474;2024-01-30T12:58:01;11.90;99.90
25933;DHT22;13731;51.166;4.474;2024-01-30T13:00:27;11.70;99.90
25933;DHT22;13731;51.166;4.474;2024-01-30T13:02:53;11.70;99.90
25933;DHT22;13731;51.166;4.474;2024-01-30T13:05:19;11.60;99.90
25933;DHT22;13731;51.166;4.474;2024-01-30T13:07:45;11.50;99.90
25933;DHT22;13731;51.166;4.474;2024-01-30T13:10:11;11.60;99.90
25933;DHT22;13731;51.166;4.474;2024-01-30T13:12:37;11.80;99.90
25933;DHT22;13731;51.166;4.474;2024-01-30T13:15:04;11.60;99.90
25933;DHT22;13731;51.166;4.474;2024-01-30T13:17:31;11.60;99.90
25933;DHT22;13731;51.166;4.474;2024-01-30T13:19:56;11.60;99.90
25933;DHT22;13731;51.166;4.474;2024-01-30T13:22:23;11.60;99.90
25933;DHT22;13731;51.166;4.474;2024-01-30T13:24:49;11.50;99.90
25933;DHT22;13731;51.166;4.474;2024-01-30T13:27:15;11.30;99.90
25933;DHT22;13731;51.166;4.474;2024-01-30T13:29:41;11.10;1.00
25933;DHT22;13731;51.166;4.474;2024-01-30T13:32:07;10.90;1.00
25933;DHT22;13731;51.166;4.474;2024-01-30T13:34:32;10.60;1.00
25933;DHT22;13731;51.166;4.474;2024-01-30T13:36:58;10.60;1.00
25933;DHT22;13731;51.166;4.474;2024-01-30T13:39:24;10.50;1.00
25933;DHT22;13731;51.166;4.474;2024-01-30T13:41:50;10.50;1.00
25933;DHT22;13731;51.166;4.474;2024-01-30T13:44:16;10.50;1.00
25933;DHT22;13731;51.166;4.474;2024-01-30T13:46:44;10.50;1.00
25933;DHT22;13731;51.166;4.474;2024-01-30T13:49:11;10.40;1.00
25933;DHT22;13731;51.166;4.474;2024-01-30T13:51:37;10.40;4.80
25933;DHT22;13731;51.166;4.474;2024-01-30T13:54:03;10.50;1.00
25933;DHT22;13731;51.166;4.474;2024-01-30T13:56:28;10.60;1.00
25933;DHT22;13731;51.166;4.474;2024-01-30T13:58:55;10.50;1.00
25933;DHT22;13731;51.166;4.474;2024-01-30T14:01:22;10.40;1.00
25933;DHT22;13731;51.166;4.474;2024-01-30T14:03:48;10.50;1.00
25933;DHT22;13731;51.166;4.474;2024-01-30T14:06:13;10.60;1.00
25933;DHT22;13731;51.166;4.474;2024-01-30T14:08:39;10.60;1.00
25933;DHT22;13731;51.166;4.474;2024-01-30T14:11:05;10.50;1.00
25933;DHT22;13731;51.166;4.474;2024-01-30T14:13:30;10.40;1.00
25933;DHT22;13731;51.166;4.474;2024-01-30T14:15:58;10.30;1.00
25933;DHT22;13731;51.166;4.474;2024-01-30T14:18:24;10.10;1.00
25933;DHT22;13731;51.166;4.474;2024-01-30T14:20:51;10.20;1.00
25933;DHT22;13731;51.166;4.474;2024-01-30T14:23:17;10.20;1.00
25933;DHT22;13731;51.166;4.474;2024-01-30T14:25:43;10.20;1.00
25933;DHT22;13731;51.166;4.474;2024-01-30T14:28:10;10.20;1.00
25933;DHT22;13731;51.166;4.474;2024-01-30T14:30:36;10.20;1.00
25933;DHT22;13731;51.166;4.474;2024-01-30T14:33:01;10.20;1.00
25933;DHT22;13731;51.166;4.474;2024-01-30T14:35:27;10.40;1.00
25933;DHT22;13731;51.166;4.474;2024-01-30T14:37:53;10.30;1.00
25933;DHT22;13731;51.166;4.474;2024-01-30T14:40:19;10.20;1.00
25933;DHT22;13731;51.166;4.474;2024-01-30T14:42:45;10.20;1.00
25933;DHT22;13731;51.166;4.474;2024-01-30T14:45:11;10.20;1.00
25933;DHT22;13731;51.166;4.474;2024-01-30T14:47:37;10.10;1.00
25933;DHT22;13731;51.166;4.474;2024-01-30T14:50:03;10.10;1.00
25933;DHT22;13731;51.166;4.474;2024-01-30T14:52:30;10.10;1.00
25933;DHT22;13731;51.166;4.474;2024-01-30T14:54:57;10.00;1.00
25933;DHT22;13731;51.166;4.474;2024-01-30T14:57:23;9.90;8.90
25933;DHT22;13731;51.166;4.474;2024-01-30T14:59:49;10.00;1.00
25933;DHT22;13731;51.166;4.474;2024-01-30T15:02:15;10.00;1.00
25933;DHT22;13731;51.166;4.474;2024-01-30T15:04:41;10.00;1.00
25933;DHT22;13731;51.166;4.474;2024-01-30T15:07:07;10.00;1.00
25933;DHT22;13731;51.166;4.474;2024-01-30T15:09:33;9.90;1.00
25933;DHT22;13731;51.166;4.474;2024-01-30T15:11:59;10.00;4.20
25933;DHT22;13731;51.166;4.474;2024-01-30T15:14:24;9.90;16.20
25933;DHT22;13731;51.166;4.474;2024-01-30T15:16:50;9.90;51.40
25933;DHT22;13731;51.166;4.474;2024-01-30T15:19:16;9.90;99.90
25933;DHT22;13731;51.166;4.474;2024-01-30T15:21:42;9.80;99.90
25933;DHT22;13731;51.166;4.474;2024-01-30T15:24:08;9.70;99.90
25933;DHT22;13731;51.166;4.474;2024-01-30T15:26:33;9.60;99.90
25933;DHT22;13731;51.166;4.474;2024-01-30T15:28:59;9.70;99.90
25933;DHT22;13731;51.166;4.474;2024-01-30T15:31:25;9.70;99.90
25933;DHT22;13731;51.166;4.474;2024-01-30T15:33:51;9.70;99.90
25933;DHT22;13731;51.166;4.474;2024-01-30T15:36:17;9.70;99.90